Time;durP1;ratioP1;P1;durP2;ratioP2;P2;SDS_P1;SDS_P2;PMS_P1;PMS_P2;Temp;Humidity;BMP_temperature;BMP_pressure;BME280_temperature;BME280_humidity;BME280_pressure;Samples;Min_cycle;Max_cycle;Signal;HPM_P1;HPM_P2
2021/03/13 00:00:11;;;;;;;0.35;0.30;;;;;;;;;;5032298;28;20493;-85
2021/03/13 00:02:37;;;;;;;0.60;0.20;;;;;;;;;;5015534;28;20477;-84
2021/03/13 00:05:04;;;;;;;0.40;0.20;;;;;;;;;;5014046;28;20531;-86
2021/03/13 00:07:30;;;;;;;1.70;0.33;;;;;;;;;;5012247;28;20477;-85
2021/03/13 00:09:57;;;;;;;0.77;0.20;;;;;;;;;;5015500;28;20399;-85
2021/03/13 00:12:24;;;;;;;1.10;0.20;;;;;;;;;;5015706;28;20431;-86
2021/03/13 00:14:50;;;;;;;0.32;0.20;;;;;;;;;;5012435;28;20459;-84
2021/03/13 00:17:17;;;;;;;1.10;0.30;;;;;;;;;;5031483;28;20492;-85
2021/03/13 00:19:44;;;;;;;0.50;0.20;;;;;;;;;;5012422;28;20405;-85
2021/03/13 00:22:10;;;;;;;1.02;0.20;;;;;;;;;;5013423;28;20794;-85
2021/03/13 00:24:36;;;;;;;0.50;0.30;;;;;;;;;;5012503;28;20453;-85
2021/03/13 00:27:03;;;;;;;0.95;0.20;;;;;;;;;;5012063;28;20507;-85
2021/03/13 00:29:30;;;;;;;1.77;0.20;;;;;;;;;;5014747;28;20890;-85
2021/03/13 00:31:56;;;;;;;1.33;0.30;;;;;;;;;;5013200;28;20497;-85
2021/03/13 00:34:22;;;;;;;1.98;0.17;;;;;;;;;;5011679;28;20954;-85
2021/03/13 00:36:49;;;;;;;1.02;0.20;;;;;;;;;;5020863;28;20455;-85
2021/03/13 00:39:15;;;;;;;1.90;0.20;;;;;;;;;;5007981;28;20415;-85
2021/03/13 00:41:41;;;;;;;1.50;0.17;;;;;;;;;;5019185;28;20490;-84
2021/03/13 00:44:08;;;;;;;1.17;0.20;;;;;;;;;;5011964;28;20408;-85
2021/03/13 00:46:36;;;;;;;0.70;0.20;;;;;;;;;;5022218;28;20802;-85
2021/03/13 00:49:03;;;;;;;0.55;0.13;;;;;;;;;;5016368;28;20404;-86
2021/03/13 00:51:29;;;;;;;0.30;0.10;;;;;;;;;;5013347;28;20409;-86
2021/03/13 00:53:55;;;;;;;0.47;0.25;;;;;;;;;;5022901;28;20421;-85
2021/03/13 00:56:21;;;;;;;1.00;0.30;;;;;;;;;;5011623;28;20496;-85
2021/03/13 00:58:47;;;;;;;0.63;0.20;;;;;;;;;;5009439;28;20991;-85
2021/03/13 01:01:15;;;;;;;0.88;0.10;;;;;;;;;;5014966;28;20464;-85
2021/03/13 01:03:41;;;;;;;0.77;0.20;;;;;;;;;;5014019;28;20760;-85
2021/03/13 01:06:07;;;;;;;0.57;0.30;;;;;;;;;;5012609;28;20439;-86
2021/03/13 01:08:33;;;;;;;1.35;0.20;;;;;;;;;;5025966;28;20422;-86
2021/03/13 01:11:00;;;;;;;0.70;0.20;;;;;;;;;;5008918;28;20401;-86
2021/03/13 01:13:26;;;;;;;1.10;0.20;;;;;;;;;;5008631;28;20409;-85
2021/03/13 01:15:52;;;;;;;1.05;0.20;;;;;;;;;;5021876;28;20391;-85
2021/03/13 01:18:20;;;;;;;0.63;0.20;;;;;;;;;;5008728;28;20445;-85
2021/03/13 01:20:46;;;;;;;1.00;0.20;;;;;;;;;;5012556;28;20407;-85
2021/03/13 01:23:12;;;;;;;0.45;0.40;;;;;;;;;;5014091;28;20462;-85
2021/03/13 01:25:39;;;;;;;0.90;0.13;;;;;;;;;;5008979;28;20800;-85
2021/03/13 01:28:05;;;;;;;0.30;0.10;;;;;;;;;;5014715;28;20935;-85
2021/03/13 01:30:31;;;;;;;0.80;0.10;;;;;;;;;;5011595;28;20405;-85
2021/03/13 01:32:57;;;;;;;0.85;0.13;;;;;;;;;;5003932;28;20423;-85
2021/03/13 01:35:25;;;;;;;0.50;0.20;;;;;;;;;;5014670;28;20407;-85
2021/03/13 01:37:51;;;;;;;0.55;0.20;;;;;;;;;;5006117;28;20482;-86
2021/03/13 01:40:18;;;;;;;1.23;0.20;;;;;;;;;;5015666;28;20407;-86
2021/03/13 01:42:44;;;;;;;1.20;0.20;;;;;;;;;;5018516;28;20438;-85
2021/03/13 01:45:12;;;;;;;1.10;0.20;;;;;;;;;;5021729;28;20464;-84
2021/03/13 01:47:39;;;;;;;0.57;0.20;;;;;;;;;;5018193;28;20418;-85
2021/03/13 01:50:06;;;;;;;0.75;0.10;;;;;;;;;;5019652;28;20502;-86
2021/03/13 01:52:33;;;;;;;0.82;0.20;;;;;;;;;;5015094;28;20463;-86
2021/03/13 01:55:00;;;;;;;0.50;0.10;;;;;;;;;;5010818;28;20406;-87
2021/03/13 01:57:27;;;;;;;0.90;0.20;;;;;;;;;;5015176;28;20400;-85
2021/03/13 01:59:53;;;;;;;0.70;0.20;;;;;;;;;;5032748;28;20404;-86
2021/03/13 02:02:19;;;;;;;1.50;0.35;;;;;;;;;;5023095;23;20789;-67
2021/03/13 02:04:46;;;;;;;0.63;0.20;;;;;;;;;;5015203;28;20432;-67
2021/03/13 02:07:13;;;;;;;1.40;0.10;;;;;;;;;;5007742;28;20494;-67
2021/03/13 02:09:45;;;;;;;0.40;0.10;;;;;;;;;;5020340;28;20412;-67
2021/03/13 02:12:16;;;;;;;0.80;0.30;;;;;;;;;;5015664;28;20397;-67
2021/03/13 02:14:47;;;;;;;0.60;0.20;;;;;;;;;;4999848;28;20443;-67
2021/03/13 02:17:16;;;;;;;0.57;0.35;;;;;;;;;;5017699;28;20393;-67
2021/03/13 02:19:53;;;;;;;0.57;0.20;;;;;;;;;;5014882;28;20404;-67
2021/03/13 02:22:20;;;;;;;1.00;0.10;;;;;;;;;;5014931;28;20479;-67
2021/03/13 02:24:58;;;;;;;0.30;0.10;;;;;;;;;;4997937;28;20412;-65
2021/03/13 02:27:26;;;;;;;0.50;0.10;;;;;;;;;;5009188;28;20776;-65
2021/03/13 02:29:54;;;;;;;0.40;0.10;;;;;;;;;;4991454;28;20409;-65
2021/03/13 02:32:23;;;;;;;0.47;0.10;;;;;;;;;;5020012;28;20806;-65
2021/03/13 02:34:51;;;;;;;0.70;0.13;;;;;;;;;;5014484;28;20400;-65
2021/03/13 02:37:19;;;;;;;0.60;0.10;;;;;;;;;;5014545;28;20404;-65
2021/03/13 02:39:46;;;;;;;0.45;0.30;;;;;;;;;;5014429;28;20396;-65
2021/03/13 02:42:14;;;;;;;1.42;0.10;;;;;;;;;;5014532;28;20400;-65
2021/03/13 02:44:40;;;;;;;0.80;0.20;;;;;;;;;;5015142;28;20401;-65
2021/03/13 02:47:08;;;;;;;1.52;0.15;;;;;;;;;;5014498;28;20427;-65
2021/03/13 02:49:36;;;;;;;0.55;0.20;;;;;;;;;;5014563;28;20415;-65
2021/03/13 02:52:03;;;;;;;0.87;0.10;;;;;;;;;;5008489;28;20432;-66
2021/03/13 02:54:29;;;;;;;0.45;0.10;;;;;;;;;;5014396;28;20491;-66
2021/03/13 02:56:56;;;;;;;0.63;0.15;;;;;;;;;;4998191;28;20401;-66
2021/03/13 02:59:22;;;;;;;1.05;0.20;;;;;;;;;;5003728;28;20424;-65
2021/03/13 03:01:49;;;;;;;0.70;0.10;;;;;;;;;;5013750;28;20411;-66
2021/03/13 03:04:17;;;;;;;0.65;0.20;;;;;;;;;;4996895;28;20815;-65
2021/03/13 03:06:44;;;;;;;1.00;0.17;;;;;;;;;;5014022;28;20412;-66
2021/03/13 03:09:11;;;;;;;0.70;0.10;;;;;;;;;;5014169;28;20401;-66
2021/03/13 03:11:38;;;;;;;1.00;0.20;;;;;;;;;;5013953;28;20887;-66
2021/03/13 03:14:04;;;;;;;1.20;0.20;;;;;;;;;;4996217;28;20400;-65
2021/03/13 03:16:32;;;;;;;0.85;0.30;;;;;;;;;;5014001;28;20853;-65
2021/03/13 03:18:59;;;;;;;1.30;0.20;;;;;;;;;;5013735;28;20420;-65
2021/03/13 03:21:26;;;;;;;0.30;0.13;;;;;;;;;;4997185;28;20488;-65
2021/03/13 03:23:52;;;;;;;0.80;0.20;;;;;;;;;;4996851;28;20469;-65
2021/03/13 03:26:18;;;;;;;0.30;0.10;;;;;;;;;;5013776;28;20880;-65
2021/03/13 03:28:45;;;;;;;0.68;0.22;;;;;;;;;;5015105;28;20424;-65
2021/03/13 03:31:14;;;;;;;0.90;0.20;;;;;;;;;;5013591;28;20476;-65
2021/03/13 03:33:40;;;;;;;0.63;0.17;;;;;;;;;;5013742;28;20407;-66
2021/03/13 03:36:06;;;;;;;0.60;0.10;;;;;;;;;;5013403;28;20431;-65
2021/03/13 03:38:34;;;;;;;0.95;0.20;;;;;;;;;;5013640;28;20396;-65
2021/03/13 03:41:00;;;;;;;0.35;0.13;;;;;;;;;;5013157;28;20765;-66
2021/03/13 03:43:29;;;;;;;0.60;0.50;;;;;;;;;;5014054;28;20499;-63
2021/03/13 03:45:57;;;;;;;1.20;0.20;;;;;;;;;;5013276;28;20491;-64
2021/03/13 03:48:24;;;;;;;1.10;0.20;;;;;;;;;;4999755;28;20421;-64
2021/03/13 03:50:53;;;;;;;2.30;0.20;;;;;;;;;;5013659;28;20408;-64
2021/03/13 03:53:21;;;;;;;0.80;0.20;;;;;;;;;;5013548;28;20404;-63
2021/03/13 03:55:50;;;;;;;0.37;0.10;;;;;;;;;;5013214;28;21001;-64
2021/03/13 03:58:19;;;;;;;0.80;0.20;;;;;;;;;;5013065;28;20496;-64
2021/03/13 04:00:45;;;;;;;2.10;0.20;;;;;;;;;;5013145;28;20409;-64
2021/03/13 04:03:13;;;;;;;1.00;0.10;;;;;;;;;;4989037;28;20419;-64
2021/03/13 04:05:39;;;;;;;0.40;0.20;;;;;;;;;;5011847;28;20784;-64
2021/03/13 04:08:07;;;;;;;0.95;0.13;;;;;;;;;;4991626;28;20444;-63
2021/03/13 04:10:36;;;;;;;0.50;0.10;;;;;;;;;;4997081;28;20767;-64
2021/03/13 04:13:04;;;;;;;1.02;0.10;;;;;;;;;;5013056;28;20955;-64
2021/03/13 04:15:31;;;;;;;0.32;0.20;;;9.90;40.90;;;;;;5012756;28;20412;-64
2021/03/13 04:17:57;;;;;;;0.30;0.13;;;;;;;;;;5012924;28;20400;-64
2021/03/13 04:20:24;;;;;;;1.45;0.20;;;;;;;;;;5012673;28;20764;-64
2021/03/13 04:22:50;;;;;;;0.80;0.30;;;;;;;;;;4995095;28;20483;-64
2021/03/13 04:25:17;;;;;;;1.60;0.30;;;;;;;;;;5012764;28;20500;-64
2021/03/13 04:27:46;;;;;;;1.60;0.30;;;;;;;;;;5010656;28;20499;-64
2021/03/13 04:30:15;;;;;;;0.30;0.10;;;;;;;;;;5006409;28;20410;-64
2021/03/13 04:32:42;;;;;;;0.82;0.20;;;;;;;;;;5007310;28;20455;-64
2021/03/13 04:35:09;;;;;;;0.85;0.10;;;;;;;;;;4993930;28;20737;-64
2021/03/13 04:37:37;;;;;;;0.33;0.10;;;;;;;;;;5012435;28;20404;-63
2021/03/13 04:40:03;;;;;;;1.42;0.20;;;;;;;;;;5012426;28;20760;-63
2021/03/13 04:42:31;;;;;;;1.30;0.20;;;;;;;;;;5012376;28;20410;-64
2021/03/13 04:44:57;;;;;;;1.55;0.20;;;;;;;;;;5009423;28;20404;-65
2021/03/13 04:47:25;;;;;;;1.47;0.10;;;;;;;;;;4993992;28;20420;-64
2021/03/13 04:49:51;;;;;;;0.80;0.10;;;;;;;;;;5008280;28;20416;-63
2021/03/13 04:52:17;;;;;;;0.68;0.20;;;;;;;;;;4992598;28;20458;-64
2021/03/13 04:54:43;;;;;;;0.55;0.30;;;;;;;;;;5005809;28;20409;-64
2021/03/13 04:57:10;;;;;;;0.70;0.20;;;;;;;;;;5006695;28;20400;-64
2021/03/13 04:59:36;;;;;;;0.30;0.17;;;;;;;;;;5012193;28;20400;-64
2021/03/13 05:02:04;;;;;;;1.40;0.20;;;;;;;;;;5011970;28;20499;-64
2021/03/13 05:04:31;;;;;;;1.20;0.43;;;;;;;;;;5012117;28;20979;-63
2021/03/13 05:06:57;;;;;;;2.28;0.43;;;9.30;42.80;;;;;;5012329;28;20427;-64
2021/03/13 05:09:23;;;;;;;0.82;0.20;;;8.90;44.20;;;;;;5011908;28;20393;-64
2021/03/13 05:11:49;;;;;;;0.95;0.30;;;8.80;43.70;;;;;;5005932;28;20416;-67
2021/03/13 05:14:15;;;;;;;0.93;0.20;;;8.80;44.30;;;;;;4993795;28;20915;-64
2021/03/13 05:16:40;;;;;;;1.42;0.20;;;8.60;44.80;;;;;;5012750;28;20389;-63
2021/03/13 05:19:06;;;;;;;1.08;0.20;;;8.70;44.80;;;;;;4998195;28;20393;-64
2021/03/13 05:21:34;;;;;;;0.60;0.20;;;8.70;45.50;;;;;;4998254;28;20404;-64
2021/03/13 05:23:59;;;;;;;1.00;0.10;;;8.80;44.60;;;;;;5014739;28;20428;-64
2021/03/13 05:26:25;;;;;;;0.50;0.28;;;8.80;44.30;;;;;;4998433;28;20425;-65
2021/03/13 05:28:51;;;;;;;1.40;0.25;;;8.70;44.40;;;;;;5015839;28;20887;-64
2021/03/13 05:31:17;;;;;;;2.40;0.60;;;8.60;45.20;;;;;;5015987;28;20953;-64
2021/03/13 05:33:43;;;;;;;0.70;0.40;;;;;;;;;;5012086;28;20753;-66
2021/03/13 05:36:11;;;;;;;1.05;0.20;;;8.30;46.50;;;;;;4997274;28;20405;-64
2021/03/13 05:38:38;;;;;;;0.95;0.30;;;8.20;46.70;;;;;;4996168;28;20433;-64
2021/03/13 05:41:04;;;;;;;1.23;0.45;;;8.00;46.60;;;;;;5011966;28;20491;-63
2021/03/13 05:43:34;;;;;;;1.33;0.60;;;;;;;;;;4998021;28;20400;-64
2021/03/13 05:46:00;;;;;;;1.00;0.50;;;;;;;;;;5015543;28;20427;-64
2021/03/13 05:48:29;;;;;;;1.33;0.60;;;7.70;47.60;;;;;;5015359;28;20417;-66
2021/03/13 05:50:59;;;;;;;1.40;0.60;;;7.70;48.40;;;;;;5007939;28;20749;-64
2021/03/13 05:53:25;;;;;;;2.00;0.50;;;;;;;;;;4999368;28;20742;-63
2021/03/13 05:55:53;;;;;;;0.90;0.55;;;7.50;48.20;;;;;;5015316;28;20883;-64
2021/03/13 05:58:20;;;;;;;1.23;0.50;;;7.40;49.30;;;;;;5015376;28;20403;-64
2021/03/13 06:00:47;;;;;;;1.02;0.50;;;;;;;;;;5015375;28;20753;-64
2021/03/13 06:03:13;;;;;;;1.25;0.50;;;7.30;48.70;;;;;;5014540;28;20405;-64
2021/03/13 06:05:40;;;;;;;1.17;0.57;;;7.40;49.10;;;;;;5014819;28;20432;-64
2021/03/13 06:08:06;;;;;;;1.80;0.60;;;7.50;49.00;;;;;;5014976;28;20499;-64
2021/03/13 06:10:32;;;;;;;1.02;0.40;;;7.50;49.30;;;;;;5001475;28;20409;-64
2021/03/13 06:13:00;;;;;;;2.00;0.50;;;7.50;48.90;;;;;;5015280;28;20424;-64
2021/03/13 06:15:28;;;;;;;0.60;0.30;;;7.60;49.00;;;;;;5009480;28;20488;-64
2021/03/13 06:17:56;;;;;;;0.60;0.30;;;7.70;49.00;;;;;;5013411;28;20942;-64
2021/03/13 06:20:29;;;;;;;0.82;0.38;;;7.70;48.70;;;;;;4999010;28;20400;-64
2021/03/13 06:22:55;;;;;;;1.45;0.45;;;7.80;48.70;;;;;;5006683;28;20440;-64
2021/03/13 06:25:26;;;;;;;1.15;0.40;;;8.00;48.10;;;;;;5013707;28;20393;-64
2021/03/13 06:28:04;;;;;;;1.10;0.50;;;8.00;48.10;;;;;;5013164;28;20445;-64
2021/03/13 06:30:32;;;;;;;1.45;0.50;;;8.10;48.50;;;;;;4996271;28;20416;-64
2021/03/13 06:32:58;;;;;;;1.15;0.70;;;8.00;49.10;;;;;;5008937;28;20409;-64
2021/03/13 06:35:26;;;;;;;1.27;0.77;;;8.10;48.70;;;;;;5011540;28;20803;-64
2021/03/13 06:37:54;;;;;;;1.97;0.50;;;8.10;48.70;;;;;;5005504;28;20455;-66
2021/03/13 06:40:28;;;;;;;1.52;0.70;;;8.10;48.90;;;;;;5008014;28;20729;-64
2021/03/13 06:42:55;;;;;;;2.10;0.50;;;8.30;48.20;;;;;;5013492;28;20405;-64
2021/03/13 06:45:22;;;;;;;1.42;0.50;;;8.30;48.30;;;;;;5009789;28;20944;-64
2021/03/13 06:47:50;;;;;;;2.63;0.60;;;8.40;48.30;;;;;;4994344;28;20448;-64
2021/03/13 06:50:18;;;;;;;2.20;1.00;;;8.10;49.70;;;;;;5009938;28;20487;-64
2021/03/13 06:52:47;;;;;;;2.88;1.20;;;7.70;50.50;;;;;;5013551;28;20467;-64
2021/03/13 06:55:21;;;;;;;2.40;0.90;;;7.50;51.30;;;;;;4992795;28;20937;-64
2021/03/13 06:57:48;;;;;;;2.40;1.15;;;7.50;51.60;;;;;;5013820;28;20872;-68
2021/03/13 07:00:34;;;;;;;2.95;1.80;;;7.50;52.80;;;;;;5013051;28;20400;-64
2021/03/13 07:03:08;;;;;;;3.22;1.20;;;7.50;53.20;;;;;;5011124;28;20440;-64
2021/03/13 07:05:35;;;;;;;2.17;1.20;;;7.60;53.40;;;;;;4993081;28;20410;-64
2021/03/13 07:08:23;;;;;;;1.88;0.75;;;7.60;51.60;;;;;;4992729;28;20418;-63
2021/03/13 07:10:49;;;;;;;2.27;0.97;;;8.00;50.70;;;;;;4994059;28;20756;-64
2021/03/13 07:13:31;;;;;;;2.17;0.93;;;8.10;51.50;;;;;;5012070;28;20404;-64
2021/03/13 07:16:20;;;;;;;2.30;1.20;;;8.10;51.80;;;;;;5012185;28;20439;-63
2021/03/13 07:18:46;;;;;;;2.90;1.13;;;8.10;52.80;;;;;;5009776;28;20389;-65
2021/03/13 07:21:13;;;;;;;2.20;1.40;;;8.20;52.70;;;;;;5008047;28;20832;-64
2021/03/13 07:23:41;;;;;;;2.80;1.80;;;8.10;53.70;;;;;;5008858;28;20523;-63
2021/03/13 07:26:09;;;;;;;3.00;1.40;;;8.10;53.80;;;;;;5010174;28;20403;-64
2021/03/13 07:28:36;;;;;;;3.65;1.60;;;8.30;54.00;;;;;;5007558;28;20413;-63
2021/03/13 07:31:04;;;;;;;3.60;1.77;;;8.40;52.20;;;;;;5002156;28;20455;-64
2021/03/13 07:33:31;;;;;;;2.25;1.33;;;8.60;51.20;;;;;;5007407;28;20409;-64
2021/03/13 07:35:58;;;;;;;3.20;1.58;;;8.80;53.60;;;;;;5008226;28;20401;-64
2021/03/13 07:38:29;;;;;;;4.70;2.40;;;9.00;54.00;;;;;;4986675;28;20433;-64
2021/03/13 07:40:56;;;;;;;3.78;2.10;;;9.10;51.40;;;;;;4997720;28;20478;-63
2021/03/13 07:43:22;;;;;;;3.53;2.50;;;9.30;49.90;;;;;;4992737;28;20419;-64
2021/03/13 07:45:48;;;;;;;1.98;1.40;;;9.50;51.70;;;;;;4993278;28;20488;-64
2021/03/13 07:48:16;;;;;;;2.90;1.05;;;9.70;51.70;;;;;;5009957;28;20425;-64
2021/03/13 07:50:46;;;;;;;2.30;0.93;;;10.20;47.50;;;;;;5005905;28;20475;-63
2021/03/13 07:53:12;;;;;;;3.17;1.10;;;10.20;48.00;;;;;;5006727;28;20392;-64
2021/03/13 07:55:39;;;;;;;1.98;1.10;;;10.40;46.40;;;;;;4993744;28;20405;-63
2021/03/13 07:58:09;;;;;;;3.63;2.00;;;10.50;46.70;;;;;;5006697;28;20392;-64
2021/03/13 08:00:43;;;;;;;4.53;1.70;;;10.60;50.00;;;;;;4993293;28;20438;-64
2021/03/13 08:03:24;;;;;;;4.90;2.22;;;;;;;;;;5010698;28;21083;-64
2021/03/13 08:05:58;;;;;;;3.17;1.75;;;10.70;49.30;;;;;;5011431;28;20933;-64
2021/03/13 08:08:34;;;;;;;4.43;2.92;;;10.70;46.20;;;;;;5011518;28;20419;-64
2021/03/13 08:11:00;;;;;;;4.53;2.90;;;;;;;;;;5010121;28;20471;-64
2021/03/13 08:13:58;;;;;;;4.70;2.88;;;10.80;49.40;;;;;;4994219;28;20440;-65
2021/03/13 08:16:31;;;;;;;3.97;2.60;;;;;;;;;;5012145;28;20389;-65
2021/03/13 08:18:58;;;;;;;3.85;2.22;;;11.20;46.90;;;;;;5009639;28;20900;-64
2021/03/13 08:21:44;;;;;;;5.60;2.67;;;11.60;47.60;;;;;;5012385;28;21031;-64
2021/03/13 08:24:12;;;;;;;5.80;3.00;;;11.90;47.20;;;;;;5009881;28;20404;-63
2021/03/13 08:26:58;;;;;;;5.97;3.43;;;;;;;;;;5012648;28;20443;-64
2021/03/13 08:29:42;;;;;;;7.32;3.15;;;;;;;;;;5012575;28;20452;-63
2021/03/13 08:32:10;;;;;;;4.50;3.38;;;;;;;;;;5007131;28;20416;-64
2021/03/13 08:34:40;;;;;;;4.80;3.28;;;;;;;;;;5012467;28;20760;-64
2021/03/13 08:37:17;;;;;;;5.93;3.20;;;12.60;44.20;;;;;;5012028;28;20393;-64
2021/03/13 08:39:43;;;;;;;7.70;4.60;;;12.70;46.30;;;;;;4994532;28;20404;-63
2021/03/13 08:42:09;;;;;;;6.15;3.90;;;12.80;44.70;;;;;;5012292;28;20392;-64
2021/03/13 08:44:37;;;;;;;6.07;3.92;;;;;;;;;;5012112;28;20476;-64
2021/03/13 08:47:05;;;;;;;6.07;4.30;;;12.90;45.20;;;;;;4994797;28;20409;-64
2021/03/13 08:49:39;;;;;;;6.88;4.80;;;13.00;44.40;;;;;;5008463;28;20769;-64
2021/03/13 08:52:25;;;;;;;8.48;5.30;;;;;;;;;;5012238;28;20396;-64
2021/03/13 08:54:54;;;;;;;8.00;5.82;;;;;;;;;;5011272;28;20466;-63
2021/03/13 08:57:37;;;;;;;8.18;5.95;;;;;;;;;;4991444;28;20834;-63
2021/03/13 09:00:04;;;;;;;8.38;6.82;;;;;;;;;;5011974;28;20470;-64
2021/03/13 09:02:33;;;;;;;8.05;6.75;;;;;;;;;;4994109;28;20742;-64
2021/03/13 09:05:02;;;;;;;9.00;6.60;;;;;;;;;;5010314;28;20396;-65
2021/03/13 09:07:29;;;;;;;9.23;6.60;;;;;;;;;;5009732;28;20420;-64
2021/03/13 09:09:56;;;;;;;9.75;7.30;;;;;;;;;;4990750;28;20405;-64
2021/03/13 09:12:22;;;;;;;10.23;6.95;;;;;;;;;;4992247;28;20401;-63
2021/03/13 09:14:52;;;;;;;9.88;7.78;;;13.20;44.80;;;;;;4991742;28;20948;-63
2021/03/13 09:17:20;;;;;;;10.57;7.55;;;13.10;46.10;;;;;;4991260;28;20411;-63
2021/03/13 09:19:48;;;;;;;10.80;8.48;;;13.20;47.80;;;;;;4992094;28;20412;-63
2021/03/13 09:22:15;;;;;;;12.15;8.15;;;;;;;;;;5009200;28;20458;-63
2021/03/13 09:24:42;;;;;;;12.13;8.48;;;;;;;;;;5010038;28;20760;-64
2021/03/13 09:27:09;;;;;;;11.60;8.63;;;;;;;;;;4991302;28;20919;-64
2021/03/13 09:29:36;;;;;;;11.20;8.50;;;;;;;;;;5009058;28;20836;-64
2021/03/13 09:32:03;;;;;;;10.75;9.20;;;;;;;;;;4991035;28;20406;-64
2021/03/13 09:34:31;;;;;;;13.70;10.65;;;;;;;;;;5009629;28;20405;-64
2021/03/13 09:36:57;;;;;;;13.82;9.85;;;;;;;;;;5008413;28;20480;-64
2021/03/13 09:39:25;;;;;;;15.27;11.07;;;;;;;;;;4991644;28;20427;-67
2021/03/13 09:42:06;;;;;;;14.73;11.60;;;;;;;;;;4991955;28;20771;-64
2021/03/13 09:44:33;;;;;;;12.20;9.70;;;;;;;;;;5015691;28;20507;-65
2021/03/13 09:47:00;;;;;;;14.38;10.73;;;;;;;;;;5009250;28;20444;-66
2021/03/13 09:49:26;;;;;;;14.13;11.97;;;;;;;;;;4990998;28;20455;-64
2021/03/13 09:51:52;;;;;;;15.20;11.00;;;;;;;;;;4991754;28;20440;-63
2021/03/13 09:54:19;;;;;;;12.98;10.65;;;;;;;;;;5016419;28;20504;-63
2021/03/13 09:56:46;;;;;;;12.50;10.48;;;;;;;;;;5009475;28;20404;-63
2021/03/13 09:59:16;;;;;;;13.20;10.43;;;;;;;;;;5009917;28;20496;-64
2021/03/13 10:01:42;;;;;;;12.70;9.73;;;;;;;;;;5011107;28;20401;-64
2021/03/13 10:04:09;;;;;;;14.98;10.77;;;;;;;;;;5013282;28;20405;-64
2021/03/13 10:06:35;;;;;;;12.73;10.40;;;;;;;;;;5013148;28;20428;-64
2021/03/13 10:09:01;;;;;;;15.15;10.73;;;;;;;;;;5013077;28;20479;-64
2021/03/13 10:11:41;;;;;;;11.57;8.17;;;;;;;;;;4995083;28;20496;-64
2021/03/13 10:14:16;;;;;;;11.77;8.18;;;;;;;;;;5012817;28;20404;-63
2021/03/13 10:16:42;;;;;;;11.13;8.35;;;;;;;;;;5012711;28;20405;-65
2021/03/13 10:19:09;;;;;;;12.02;7.95;;;;;;;;;;4995028;28;20768;-65
2021/03/13 10:21:35;;;;;;;8.60;6.63;;;;;;;;;;5013038;28;20447;-64
2021/03/13 10:24:01;;;;;;;9.18;5.97;;;;;;;;;;5012794;28;20405;-63
2021/03/13 10:26:28;;;;;;;8.55;5.93;;;;;;;;;;4994747;28;20405;-65
2021/03/13 10:28:55;;;;;;;10.63;7.97;;;;;;;;;;4993724;28;20417;-64
2021/03/13 10:31:27;;;;;;;10.90;8.20;;;;;;;;;;5012645;28;20404;-66
2021/03/13 10:33:53;;;;;;;8.73;6.60;;;13.40;47.90;;;;;;5011999;28;20880;-64
2021/03/13 10:36:20;;;;;;;8.77;6.10;;;15.50;43.70;;;;;;5012965;28;20482;-64
2021/03/13 10:38:48;;;;;;;8.27;5.38;;;15.10;39.40;;;;;;5011541;28;20393;-64
2021/03/13 10:41:15;;;;;;;7.63;5.93;;;15.00;41.00;;;;;;4993659;28;20464;-65
2021/03/13 10:43:43;;;;;;;10.10;7.70;;;14.90;40.40;;;;;;5009743;28;20400;-64
2021/03/13 10:46:16;;;;;;;8.45;5.55;;;14.80;42.80;;;;;;5012217;28;20408;-64
2021/03/13 10:49:03;;;;;;;8.65;6.22;;;15.00;40.90;;;;;;5011983;28;20459;-65
2021/03/13 10:51:30;;;;;;;8.55;6.50;;;15.40;41.20;;;;;;4994230;28;20411;-64
2021/03/13 10:53:58;;;;;;;8.65;5.72;;;15.90;39.30;;;;;;4993906;28;20420;-64
2021/03/13 10:56:24;;;;;;;8.50;5.78;;;;;;;;;;5011113;28;20748;-64
2021/03/13 10:58:51;;;;;;;7.00;5.93;;;;;;;;;;5009926;28;20400;-64
2021/03/13 11:01:17;;;;;;;8.70;6.80;;;;;;;;;;5009845;28;20396;-64
2021/03/13 11:03:44;;;;;;;9.70;7.57;;;;;;;;;;5009665;28;20443;-64
2021/03/13 11:06:11;;;;;;;8.85;7.32;;;;;;;;;;5010212;28;20415;-65
2021/03/13 11:08:38;;;;;;;10.75;7.53;;;;;;;;;;5011091;28;20452;-64
2021/03/13 11:11:04;;;;;;;9.63;6.95;;;;;;;;;;5012267;28;20396;-64
2021/03/13 11:13:31;;;;;;;10.55;7.50;;;;;;;;;;5010766;28;20903;-64
2021/03/13 11:15:57;;;;;;;10.30;7.20;;;;;;;;;;5010855;28;20509;-64
2021/03/13 11:18:23;;;;;;;9.55;7.38;;;;;;;;;;5011927;28;20733;-64
2021/03/13 11:20:49;;;;;;;8.13;6.72;;;;;;;;;;5011019;28;20763;-65
2021/03/13 11:23:17;;;;;;;8.60;6.45;;;;;;;;;;5011720;28;20404;-64
2021/03/13 11:25:44;;;;;;;11.98;8.77;;;;;;;;;;5011659;28;20432;-64
2021/03/13 11:28:10;;;;;;;7.80;6.07;;;;;;;;;;5012170;28;20914;-65
2021/03/13 11:30:36;;;;;;;10.73;7.38;;;;;;;;;;4995487;28;20413;-65
2021/03/13 11:33:02;;;;;;;13.85;8.40;;;;;;;;;;4995120;28;20400;-64
2021/03/13 11:35:29;;;;;;;11.10;7.63;;;;;;;;;;5012661;28;20491;-64
2021/03/13 11:37:55;;;;;;;9.55;7.65;;;;;;;;;;4999318;28;20427;-65
2021/03/13 11:40:24;;;;;;;10.70;7.65;;;;;;;;;;5013322;28;20400;-64
2021/03/13 11:42:52;;;;;;;9.63;6.80;;;;;;;;;;4995439;28;21028;-64
2021/03/13 11:45:19;;;;;;;8.73;7.70;;;;;;;;;;4995770;28;20413;-65
2021/03/13 11:47:45;;;;;;;9.73;7.90;;;;;;;;;;5013130;28;20425;-64
2021/03/13 11:50:12;;;;;;;10.52;8.38;;;;;;;;;;5013294;28;20424;-64
2021/03/13 11:52:39;;;;;;;10.77;8.05;;;;;;;;;;5013125;28;20408;-66
2021/03/13 11:55:06;;;;;;;12.40;8.45;;;;;;;;;;5013133;28;20404;-64
2021/03/13 11:57:32;;;;;;;9.10;6.90;;;17.00;39.20;;;;;;4995438;28;20417;-65
2021/03/13 11:59:59;;;;;;;7.80;6.30;;;;;;;;;;4995333;28;20444;-65
2021/03/13 12:02:25;;;;;;;11.55;8.32;;;;;;;;;;4995243;28;20409;-65
2021/03/13 12:04:51;;;;;;;9.93;7.53;;;;;;;;;;5012818;28;20438;-64
2021/03/13 12:07:17;;;;;;;12.27;8.55;;;;;;;;;;5016820;28;20401;-64
2021/03/13 12:09:43;;;;;;;10.35;7.97;;;;;;;;;;5012848;28;20421;-65
2021/03/13 12:12:11;;;;;;;9.52;8.15;;;;;;;;;;5013331;28;20408;-65
2021/03/13 12:14:38;;;;;;;10.07;7.97;;;;;;;;;;4992219;28;20460;-65
2021/03/13 12:17:07;;;;;;;10.65;7.78;;;;;;;;;;5008077;28;20757;-66
2021/03/13 12:19:33;;;;;;;11.73;8.32;;;;;;;;;;5006808;28;20738;-65
2021/03/13 12:22:00;;;;;;;9.25;7.43;;;;;;;;;;4995224;28;20416;-65
2021/03/13 12:24:26;;;;;;;10.75;7.95;;;;;;;;;;5018621;28;20424;-64
2021/03/13 12:26:52;;;;;;;9.85;8.40;;;;;;;;;;5012604;28;20488;-64
2021/03/13 12:29:18;;;;;;;10.52;8.07;;;;;;;;;;5012281;28;20424;-65
2021/03/13 12:31:46;;;;;;;11.18;8.60;;;;;;;;;;5012587;28;20945;-65
2021/03/13 12:34:15;;;;;;;11.32;8.93;;;;;;;;;;4991140;28;20509;-65
2021/03/13 12:36:41;;;;;;;11.30;8.40;;;;;;;;;;4991604;28;20503;-64
2021/03/13 12:39:07;;;;;;;12.13;7.97;;;;;;;;;;5011727;28;20396;-64
2021/03/13 12:41:33;;;;;;;10.83;8.77;;;;;;;;;;4994749;28;20450;-65
2021/03/13 12:44:00;;;;;;;11.82;8.48;;;;;;;;;;5012371;28;20964;-65
2021/03/13 12:46:26;;;;;;;11.63;8.15;;;;;;;;;;5012412;28;20400;-64
2021/03/13 12:48:53;;;;;;;11.00;8.65;;;;;;;;;;4996050;28;20495;-65
2021/03/13 12:51:19;;;;;;;11.27;8.48;;;18.10;38.80;;;;;;5012082;28;20397;-64
2021/03/13 12:53:46;;;;;;;11.65;8.15;;;17.20;39.00;;;;;;5012257;28;20411;-64
2021/03/13 12:56:12;;;;;;;11.27;8.15;;;17.10;41.50;;;;;;4990473;28;20405;-65
2021/03/13 12:58:39;;;;;;;10.82;8.65;;;17.60;40.60;;;;;;4996632;28;20435;-65
2021/03/13 13:01:05;;;;;;;11.82;8.63;;;18.30;38.60;;;;;;5012145;28;20393;-65
2021/03/13 13:03:31;;;;;;;12.50;8.88;;;18.70;37.60;;;;;;4991897;28;20467;-64
2021/03/13 13:05:58;;;;;;;12.80;8.43;;;18.40;37.60;;;;;;5011364;28;20389;-65
2021/03/13 13:08:24;;;;;;;11.33;8.30;;;17.90;40.20;;;;;;5011987;28;20491;-65
2021/03/13 13:10:50;;;;;;;11.10;8.23;;;18.20;38.10;;;;;;5011829;28;20876;-64
2021/03/13 13:13:17;;;;;;;11.93;8.73;;;17.80;37.60;;;;;;4992497;28;20413;-64
2021/03/13 13:15:47;;;;;;;11.65;8.73;;;18.00;38.50;;;;;;5009639;28;20399;-65
2021/03/13 13:18:13;;;;;;;13.15;8.82;;;18.00;39.10;;;;;;5010508;28;20796;-65
2021/03/13 13:20:39;;;;;;;11.05;8.27;;;17.90;38.80;;;;;;5011374;28;20401;-65
2021/03/13 13:23:06;;;;;;;10.20;7.88;;;18.10;38.80;;;;;;5012000;28;20454;-65
2021/03/13 13:25:32;;;;;;;10.77;8.37;;;18.20;37.80;;;;;;4993572;28;20405;-64
2021/03/13 13:28:00;;;;;;;12.00;8.50;;;17.90;38.40;;;;;;5006603;28;20566;-65
2021/03/13 13:30:27;;;;;;;11.00;8.57;;;17.90;40.40;;;;;;5011492;28;20393;-65
2021/03/13 13:32:53;;;;;;;12.82;8.13;;;17.60;38.40;;;;;;4994137;28;20413;-65
2021/03/13 13:35:19;;;;;;;10.98;7.47;;;17.20;38.20;;;;;;5011596;28;20399;-65
2021/03/13 13:37:49;;;;;;;16.65;8.45;;;17.40;40.00;;;;;;5012995;28;20393;-65
2021/03/13 13:40:16;;;;;;;11.02;8.45;;;17.80;39.50;;;;;;5013899;28;20904;-64
2021/03/13 13:42:42;;;;;;;10.45;8.27;;;;;;;;;;5015449;28;20975;-65
2021/03/13 13:45:10;;;;;;;10.32;8.23;;;18.40;37.10;;;;;;5015685;28;20396;-64
2021/03/13 13:47:37;;;;;;;9.90;7.80;;;;;;;;;;5015183;28;20793;-65
2021/03/13 13:50:03;;;;;;;11.90;8.88;;;;;;;;;;5015564;28;20532;-64
2021/03/13 13:52:29;;;;;;;10.55;7.82;;;;;;;;;;5015579;28;20401;-64
2021/03/13 13:54:56;;;;;;;12.20;8.55;;;;;;;;;;5015274;28;20811;-65
2021/03/13 13:57:22;;;;;;;11.30;8.60;;;18.90;36.20;;;;;;4997784;28;20459;-64
2021/03/13 13:59:48;;;;;;;10.77;8.50;;;18.90;36.50;;;;;;5015116;28;20393;-65
2021/03/13 14:02:14;;;;;;;13.98;8.52;;;18.30;35.30;;;;;;5014984;28;20420;-64